createdAt,value
2018-11-26T00:00:33.560Z,4.10
2018-11-26T00:03:02.454Z,4.20
2018-11-26T00:05:31.184Z,4.10
2018-11-26T00:07:59.507Z,4.10
2018-11-26T00:10:38.999Z,4.10
2018-11-26T00:13:07.991Z,4.10
2018-11-26T00:15:36.465Z,4.10
2018-11-26T00:18:06.280Z,4.00
2018-11-26T00:20:34.556Z,4.00
2018-11-26T00:23:02.831Z,4.00
2018-11-26T00:25:31.124Z,4.00
2018-11-26T00:27:59.537Z,4.00
2018-11-26T00:30:27.935Z,4.10
2018-11-26T00:32:56.855Z,4.00
2018-11-26T00:35:25.489Z,4.00
2018-11-26T00:37:53.785Z,4.10
2018-11-26T00:40:22.174Z,4.10
2018-11-26T00:42:50.502Z,4.00
2018-11-26T00:45:19.286Z,4.20
2018-11-26T00:47:47.583Z,4.20
2018-11-26T00:52:54.680Z,4.10
2018-11-26T00:55:22.974Z,4.20
2018-11-26T00:57:52.070Z,4.20
2018-11-26T01:00:20.868Z,4.20
2018-11-26T01:02:49.862Z,4.20
2018-11-26T01:05:30.499Z,4.30
2018-11-26T01:07:58.783Z,4.30
2018-11-26T01:10:27.509Z,4.30
2018-11-26T01:12:55.814Z,4.40
2018-11-26T01:15:24.094Z,4.30
2018-11-26T01:17:52.746Z,4.30
2018-11-26T01:20:21.070Z,4.40
2018-11-26T01:22:49.358Z,4.40
2018-11-26T01:25:17.675Z,4.30
2018-11-26T01:27:45.960Z,4.40
2018-11-26T01:30:14.451Z,4.40
2018-11-26T01:32:44.133Z,4.50
2018-11-26T01:35:12.866Z,4.40
2018-11-26T01:40:23.203Z,4.50
2018-11-26T01:42:51.589Z,4.50
2018-11-26T01:45:19.870Z,4.50
2018-11-26T01:47:48.983Z,4.50
2018-11-26T01:50:17.354Z,4.50
2018-11-26T01:52:45.688Z,4.60
2018-11-26T01:55:13.958Z,4.60
2018-11-26T01:57:43.082Z,4.60
2018-11-26T02:00:15.062Z,4.60
2018-11-26T02:02:43.826Z,4.60
2018-11-26T02:05:12.473Z,4.80
2018-11-26T02:07:40.776Z,4.80
2018-11-26T02:10:10.470Z,4.80
2018-11-26T02:12:38.779Z,4.80
2018-11-26T02:15:09.008Z,4.80
2018-11-26T02:17:37.451Z,4.80
2018-11-26T02:20:06.278Z,4.70
2018-11-26T02:22:34.542Z,4.80
2018-11-26T02:25:03.354Z,4.90
2018-11-26T02:27:31.718Z,4.90
2018-11-26T02:30:00.095Z,4.90
2018-11-26T02:32:29.102Z,4.80
2018-11-26T02:34:58.319Z,4.80
2018-11-26T02:37:26.964Z,4.80
2018-11-26T02:39:55.858Z,4.70
2018-11-26T02:42:24.339Z,4.70
2018-11-26T02:44:52.607Z,4.70
2018-11-26T02:47:21.026Z,4.90
2018-11-26T02:49:49.322Z,4.80
2018-11-26T02:52:17.886Z,4.90
2018-11-26T02:54:46.141Z,4.80
2018-11-26T02:57:14.446Z,4.70
2018-11-26T02:59:43.223Z,4.70
2018-11-26T03:02:12.118Z,4.80
2018-11-26T03:04:41.210Z,4.80
2018-11-26T03:07:09.484Z,4.80
2018-11-26T03:09:37.758Z,4.80
2018-11-26T03:12:06.096Z,4.80
2018-11-26T03:14:34.395Z,4.90
2018-11-26T03:17:02.742Z,4.80
2018-11-26T03:19:31.339Z,4.80
2018-11-26T03:22:00.078Z,4.90
2018-11-26T03:24:29.466Z,4.90
2018-11-26T03:26:57.759Z,4.80
2018-11-26T03:29:26.017Z,4.90
2018-11-26T03:31:54.879Z,4.90
2018-11-26T03:34:24.387Z,4.80
2018-11-26T03:36:52.687Z,4.80
2018-11-26T03:39:21.603Z,4.70
2018-11-26T03:41:49.953Z,4.70
2018-11-26T03:44:18.209Z,4.80
2018-11-26T03:46:46.502Z,4.80
2018-11-26T03:49:15.246Z,4.90
2018-11-26T03:51:43.569Z,4.90
2018-11-26T03:54:11.840Z,4.80
2018-11-26T03:56:40.133Z,4.70
2018-11-26T03:59:08.756Z,4.70
2018-11-26T04:01:37.032Z,4.70
2018-11-26T04:04:05.642Z,4.70
2018-11-26T04:06:33.956Z,4.70
2018-11-26T04:09:02.272Z,4.80
2018-11-26T04:11:30.802Z,4.80
2018-11-26T04:13:59.070Z,4.80
2018-11-26T04:16:27.348Z,4.70
2018-11-26T04:18:56.317Z,4.80
2018-11-26T04:21:24.584Z,4.80
2018-11-26T04:23:53.624Z,4.90
2018-11-26T04:26:21.901Z,4.90
2018-11-26T04:28:50.183Z,4.80
2018-11-26T04:31:18.458Z,4.70
2018-11-26T04:33:48.114Z,4.80
2018-11-26T04:36:16.401Z,4.80
2018-11-26T04:38:44.693Z,4.70
2018-11-26T04:41:13.378Z,4.80
2018-11-26T04:43:41.656Z,4.70
2018-11-26T04:46:09.934Z,4.90
2018-11-26T04:48:38.719Z,4.80
2018-11-26T04:51:06.998Z,4.90
2018-11-26T04:53:35.282Z,4.90
2018-11-26T04:56:04.861Z,4.80
2018-11-26T04:58:33.722Z,4.80
2018-11-26T05:01:02.651Z,4.80
2018-11-26T05:03:31.457Z,4.80
2018-11-26T05:05:59.729Z,4.90
2018-11-26T05:08:28.018Z,4.80
2018-11-26T05:10:56.331Z,4.90
2018-11-26T05:13:25.105Z,4.80
2018-11-26T05:15:53.399Z,4.80
2018-11-26T05:18:22.895Z,4.80
2018-11-26T05:20:51.526Z,4.80
2018-11-26T05:23:19.823Z,4.70
2018-11-26T05:25:48.094Z,4.80
2018-11-26T05:28:16.380Z,4.90
2018-11-26T05:30:44.649Z,4.80
2018-11-26T05:33:13.731Z,4.70
2018-11-26T05:35:42.402Z,4.80
2018-11-26T05:38:11.191Z,4.80
2018-11-26T05:40:40.112Z,4.80
2018-11-26T05:43:08.376Z,4.80
2018-11-26T05:45:36.661Z,4.90
2018-11-26T05:48:04.961Z,4.90
2018-11-26T05:50:33.238Z,5.00
2018-11-26T05:53:01.587Z,5.00
2018-11-26T05:55:29.878Z,5.10
2018-11-26T05:57:58.835Z,5.00
2018-11-26T06:00:32.285Z,5.00
2018-11-26T06:03:00.993Z,5.00
2018-11-26T06:05:29.720Z,5.00
2018-11-26T06:07:58.308Z,5.00
2018-11-26T06:10:26.573Z,5.00
2018-11-26T06:18:09.523Z,4.90
2018-11-26T06:20:37.796Z,5.00
2018-11-26T06:23:06.416Z,5.10
2018-11-26T06:25:34.721Z,5.10
2018-11-26T06:28:03.019Z,5.10
2018-11-26T06:30:31.923Z,5.10
2018-11-26T06:33:00.599Z,5.20
2018-11-26T06:35:29.255Z,5.20
2018-11-26T06:37:58.843Z,5.20
2018-11-26T06:40:27.791Z,5.20
2018-11-26T06:42:56.081Z,5.20
2018-11-26T06:45:24.358Z,5.20
2018-11-26T06:47:52.683Z,5.10
2018-11-26T06:50:21.585Z,5.20
2018-11-26T06:52:49.869Z,5.00
2018-11-26T06:55:19.972Z,5.00
2018-11-26T06:57:48.344Z,4.90
2018-11-26T07:00:17.689Z,4.90
2018-11-26T07:02:46.005Z,5.00
2018-11-26T07:05:20.553Z,5.00
2018-11-26T07:07:48.850Z,5.00
2018-11-26T07:10:17.714Z,5.00
2018-11-26T07:12:46.058Z,5.00
2018-11-26T07:15:16.742Z,5.00
2018-11-26T07:17:45.791Z,5.00
2018-11-26T07:20:15.854Z,5.10
2018-11-26T07:22:44.139Z,5.10
2018-11-26T07:25:13.391Z,5.00
2018-11-26T07:27:42.090Z,5.00
2018-11-26T07:30:14.482Z,5.00
2018-11-26T07:32:43.402Z,5.00
2018-11-26T07:35:12.492Z,5.10
2018-11-26T07:37:40.822Z,5.00
2018-11-26T07:40:12.317Z,5.00
2018-11-26T07:42:42.853Z,5.10
2018-11-26T07:45:12.562Z,5.00
2018-11-26T07:47:40.856Z,4.90
2018-11-26T07:50:12.375Z,5.00
2018-11-26T07:52:40.653Z,5.00
2018-11-26T07:55:14.087Z,5.10
2018-11-26T07:57:43.357Z,5.10
2018-11-26T08:00:13.626Z,5.10
2018-11-26T08:02:42.847Z,5.00
2018-11-26T08:05:13.214Z,5.10
2018-11-26T08:07:41.489Z,5.10
2018-11-26T08:10:11.877Z,5.10
2018-11-26T08:12:40.362Z,5.20
2018-11-26T08:15:11.606Z,5.30
2018-11-26T08:17:39.928Z,5.10
2018-11-26T08:20:09.364Z,5.10
2018-11-26T08:22:37.708Z,5.20
2018-11-26T08:25:08.531Z,5.10
2018-11-26T08:27:37.064Z,5.30
2018-11-26T08:30:10.503Z,5.30
2018-11-26T08:32:39.264Z,5.30
2018-11-26T08:35:08.185Z,5.30
2018-11-26T08:37:36.450Z,5.30
2018-11-26T08:40:11.259Z,5.30
2018-11-26T08:42:45.747Z,5.20
2018-11-26T08:45:19.255Z,5.20
2018-11-26T08:47:52.894Z,5.20
2018-11-26T08:50:21.491Z,5.10
2018-11-26T08:52:49.746Z,5.10
2018-11-26T08:55:18.036Z,5.10
2018-11-26T08:57:46.698Z,5.10
2018-11-26T09:00:14.992Z,5.10
2018-11-26T09:02:45.275Z,5.10
2018-11-26T09:05:23.919Z,5.10
2018-11-26T09:07:47.778Z,5.00
2018-11-26T09:10:16.064Z,5.10
2018-11-26T09:12:44.351Z,5.20
2018-11-26T09:15:13.086Z,5.10
2018-11-26T09:17:41.330Z,5.00
2018-11-26T09:20:10.871Z,5.00
2018-11-26T09:22:39.495Z,5.00
2018-11-26T09:25:10.659Z,5.00
2018-11-26T09:27:39.040Z,5.00
2018-11-26T09:30:12.006Z,5.00
2018-11-26T09:32:41.310Z,5.00
2018-11-26T09:35:12.403Z,5.00
2018-11-26T09:37:41.283Z,5.10
2018-11-26T09:40:12.536Z,5.10
2018-11-26T09:42:40.954Z,5.20
2018-11-26T09:45:14.833Z,5.20
2018-11-26T09:47:43.100Z,5.30
2018-11-26T09:50:13.846Z,5.00
2018-11-26T09:52:42.211Z,5.00
2018-11-26T09:55:12.770Z,5.10
2018-11-26T09:57:41.071Z,5.20
2018-11-26T10:00:14.088Z,5.00
2018-11-26T10:02:43.382Z,5.10
2018-11-26T10:05:16.071Z,5.00
2018-11-26T10:07:44.355Z,5.00
2018-11-26T10:10:12.870Z,5.10
2018-11-26T10:12:41.832Z,5.00
2018-11-26T10:15:16.717Z,5.10
2018-11-26T10:17:45.456Z,5.10
2018-11-26T10:20:15.270Z,5.10
2018-11-26T10:22:44.079Z,5.20
2018-11-26T10:25:13.396Z,5.10
2018-11-26T10:27:41.711Z,5.10
2018-11-26T10:30:11.978Z,4.90
2018-11-26T10:32:41.187Z,4.90
2018-11-26T10:35:11.306Z,4.80
2018-11-26T10:37:39.612Z,4.80
2018-11-26T10:40:12.455Z,4.90
2018-11-26T10:42:40.783Z,4.80
2018-11-26T10:45:12.658Z,5.00
2018-11-26T10:47:40.937Z,4.90
2018-11-26T10:50:15.174Z,4.90
2018-11-26T10:52:44.601Z,4.90
2018-11-26T10:55:14.323Z,5.00
2018-11-26T10:57:42.623Z,5.10
2018-11-26T11:02:18.514Z,5.10
2018-11-26T11:04:47.729Z,5.00
2018-11-26T11:07:15.455Z,5.10
2018-11-26T11:09:43.739Z,5.00
2018-11-26T11:12:12.733Z,5.00
2018-11-26T11:14:41.029Z,5.10
2018-11-26T11:17:09.435Z,4.90
2018-11-26T11:19:39.596Z,4.90
2018-11-26T11:22:06.995Z,5.00
2018-11-26T11:24:35.395Z,5.00
2018-11-26T11:27:04.039Z,5.00
2018-11-26T11:29:32.337Z,5.00
2018-11-26T11:32:01.093Z,5.00
2018-11-26T11:34:29.716Z,5.20
2018-11-26T11:36:58.672Z,5.00
2018-11-26T11:39:26.978Z,4.90
2018-11-26T11:41:55.768Z,4.90
2018-11-26T11:44:24.048Z,4.90
2018-11-26T11:46:52.370Z,4.90
2018-11-26T11:49:20.668Z,4.90
2018-11-26T11:51:48.964Z,4.90
2018-11-26T11:54:17.328Z,4.90
2018-11-26T11:56:45.658Z,4.80
2018-11-26T11:59:13.964Z,4.80
2018-11-26T12:01:42.243Z,4.90
2018-11-26T12:04:11.082Z,5.00
2018-11-26T12:06:39.356Z,5.00
2018-11-26T12:09:09.670Z,5.00
2018-11-26T12:11:38.400Z,5.00
2018-11-26T12:14:07.255Z,4.90
2018-11-26T12:16:35.554Z,5.00
2018-11-26T12:19:04.117Z,5.00
2018-11-26T12:21:32.424Z,5.00
2018-11-26T12:24:01.340Z,5.10
2018-11-26T12:26:29.643Z,5.00
2018-11-26T12:28:58.030Z,5.00
2018-11-26T12:31:26.359Z,5.00
2018-11-26T12:33:55.326Z,5.00
2018-11-26T12:36:23.632Z,4.90
2018-11-26T12:38:51.899Z,5.00
2018-11-26T12:41:20.827Z,5.00
2018-11-26T12:43:49.121Z,5.10
2018-11-26T12:46:17.423Z,5.00
2018-11-26T12:48:45.720Z,5.10
2018-11-26T12:51:14.007Z,5.10
2018-11-26T12:53:42.495Z,5.10
2018-11-26T12:56:11.059Z,5.10
2018-11-26T12:58:39.354Z,5.10
2018-11-26T13:01:07.729Z,5.10
2018-11-26T13:03:36.642Z,5.00
2018-11-26T13:06:06.354Z,5.10
2018-11-26T13:08:34.765Z,5.10
2018-11-26T13:13:37.179Z,4.90
2018-11-26T13:16:05.658Z,5.20
2018-11-26T13:18:34.604Z,5.10
2018-11-26T13:21:02.968Z,5.10
2018-11-26T13:23:31.497Z,5.10
2018-11-26T13:25:59.993Z,5.10
2018-11-26T13:28:28.403Z,5.10
2018-11-26T13:30:56.792Z,5.10
2018-11-26T13:33:25.543Z,5.20
2018-11-26T13:35:54.332Z,5.20
2018-11-26T13:38:22.632Z,5.00
2018-11-26T13:40:51.524Z,5.00
2018-11-26T13:43:19.825Z,5.00
2018-11-26T13:45:49.265Z,5.00
2018-11-26T13:48:18.628Z,5.10
2018-11-26T13:50:50.469Z,4.90
2018-11-26T13:53:19.728Z,4.90
2018-11-26T13:55:47.987Z,5.00
2018-11-26T13:58:16.388Z,5.00
2018-11-26T14:00:44.952Z,4.80
2018-11-26T14:03:13.832Z,4.90
2018-11-26T14:05:42.150Z,5.00
2018-11-26T14:08:10.452Z,4.90
2018-11-26T14:10:38.820Z,4.90
2018-11-26T14:13:10.050Z,4.90
2018-11-26T14:15:38.341Z,4.90
2018-11-26T14:18:07.253Z,4.80
2018-11-26T14:20:35.610Z,4.90
2018-11-26T14:23:03.905Z,5.00
2018-11-26T14:25:32.266Z,5.00
2018-11-26T14:28:00.575Z,4.90
2018-11-26T14:30:29.639Z,4.80
2018-11-26T14:32:58.338Z,4.90
2018-11-26T14:35:26.979Z,4.80
2018-11-26T14:37:58.350Z,4.90
2018-11-26T14:40:30.413Z,4.90
2018-11-26T14:42:58.750Z,4.80
2018-11-26T14:45:27.741Z,4.60
2018-11-26T14:47:56.516Z,4.70
2018-11-26T14:50:24.891Z,4.70
2018-11-26T14:52:53.654Z,4.70
2018-11-26T14:55:24.168Z,4.70
2018-11-26T14:57:52.442Z,4.70
2018-11-26T15:00:21.156Z,4.70
2018-11-26T15:02:49.552Z,4.70
2018-11-26T15:05:18.303Z,4.70
2018-11-26T15:07:46.673Z,4.80
2018-11-26T15:10:16.069Z,4.70
2018-11-26T15:12:45.385Z,4.70
2018-11-26T15:15:14.839Z,4.70
2018-11-26T15:17:43.664Z,4.80
2018-11-26T15:20:14.376Z,4.80
2018-11-26T15:22:42.709Z,4.70
2018-11-26T15:25:13.280Z,4.50
2018-11-26T15:27:41.648Z,4.50
2018-11-26T15:30:12.150Z,4.70
2018-11-26T15:32:40.688Z,4.80
2018-11-26T15:35:13.959Z,4.60
2018-11-26T15:37:42.878Z,4.50
2018-11-26T15:40:12.968Z,4.50
2018-11-26T15:42:41.428Z,4.50
2018-11-26T15:45:13.583Z,4.50
2018-11-26T15:47:42.493Z,4.60
2018-11-26T15:50:10.869Z,4.50
2018-11-26T15:52:39.250Z,4.40
2018-11-26T15:55:09.364Z,4.40
2018-11-26T15:57:37.723Z,4.40
2018-11-26T16:00:10.141Z,4.50
2018-11-26T16:02:38.444Z,4.30
2018-11-26T16:05:08.615Z,4.40
2018-11-26T16:07:36.893Z,4.40
2018-11-26T16:10:06.500Z,4.40
2018-11-26T16:12:35.576Z,4.40
2018-11-26T16:15:03.987Z,4.40
2018-11-26T16:17:32.264Z,4.30
2018-11-26T16:20:01.300Z,4.40
2018-11-26T16:22:29.629Z,4.50
2018-11-26T16:24:57.909Z,4.50
2018-11-26T16:27:26.656Z,4.50
2018-11-26T16:29:55.082Z,4.50
2018-11-26T16:32:23.980Z,4.50
2018-11-26T16:34:52.834Z,4.50
2018-11-26T16:37:21.522Z,4.50
2018-11-26T16:39:50.298Z,4.60
2018-11-26T16:42:20.034Z,4.50
2018-11-26T16:44:48.324Z,4.30
2018-11-26T16:47:16.631Z,4.30
2018-11-26T16:49:44.925Z,4.30
2018-11-26T16:52:13.196Z,4.40
2018-11-26T16:54:41.924Z,4.50
2018-11-26T16:57:10.448Z,4.40
2018-11-26T16:59:39.427Z,4.50
2018-11-26T17:02:07.842Z,4.50
2018-11-26T17:04:37.336Z,4.50
2018-11-26T17:07:05.676Z,4.60
2018-11-26T17:09:34.040Z,4.50
2018-11-26T17:12:02.353Z,4.40
2018-11-26T17:14:31.848Z,4.30
2018-11-26T17:17:00.134Z,4.30
2018-11-26T17:19:29.191Z,4.20
2018-11-26T17:21:58.148Z,4.30
2018-11-26T17:24:26.851Z,4.40
2018-11-26T17:26:56.132Z,4.50
2018-11-26T17:29:24.575Z,4.40
2018-11-26T17:31:53.488Z,4.50
2018-11-26T17:34:22.127Z,4.40
2018-11-26T17:36:50.421Z,4.30
2018-11-26T17:39:18.961Z,4.30
2018-11-26T17:41:47.740Z,4.20
2018-11-26T17:44:16.059Z,4.10
2018-11-26T17:46:44.484Z,4.20
2018-11-26T17:49:12.900Z,4.20
2018-11-26T17:54:10.167Z,4.20
2018-11-26T17:56:38.549Z,4.20
2018-11-26T17:59:06.939Z,4.10
2018-11-26T18:01:39.532Z,4.10
2018-11-26T18:04:09.121Z,4.10
2018-11-26T18:06:37.453Z,4.10
2018-11-26T18:09:09.881Z,4.00
2018-11-26T18:11:38.480Z,4.10
2018-11-26T18:14:07.260Z,4.10
2018-11-26T18:16:35.949Z,4.00
2018-11-26T18:19:04.778Z,4.00
2018-11-26T18:21:33.161Z,4.00
2018-11-26T18:24:01.864Z,3.90
2018-11-26T18:26:30.225Z,4.00
2018-11-26T18:28:58.986Z,4.00
2018-11-26T18:31:27.296Z,3.90
2018-11-26T18:33:56.060Z,4.00
2018-11-26T18:36:24.333Z,4.00
2018-11-26T18:38:52.554Z,4.00
2018-11-26T18:41:21.281Z,4.00
2018-11-26T18:43:49.569Z,3.90
2018-11-26T18:46:17.860Z,4.00
2018-11-26T18:48:46.243Z,4.00
2018-11-26T18:51:15.336Z,4.10
2018-11-26T18:53:44.549Z,4.10
2018-11-26T18:56:13.556Z,3.90
2018-11-26T18:58:42.709Z,3.90
2018-11-26T19:01:11.088Z,3.90
2018-11-26T19:03:39.769Z,3.80
2018-11-26T19:06:08.213Z,4.00
2018-11-26T19:08:36.882Z,3.90
2018-11-26T19:11:13.816Z,3.90
2018-11-26T19:13:53.983Z,3.80
2018-11-26T19:16:24.321Z,3.80
2018-11-26T19:18:53.068Z,3.90
2018-11-26T19:21:21.791Z,4.00
2018-11-26T19:23:50.472Z,3.90
2018-11-26T19:26:18.774Z,3.90
2018-11-26T19:28:47.138Z,3.90
2018-11-26T19:33:54.265Z,4.00
2018-11-26T19:36:22.548Z,3.80
2018-11-26T19:38:50.913Z,3.80
2018-11-26T19:41:20.349Z,3.60
2018-11-26T19:43:49.048Z,3.70
2018-11-26T19:46:17.411Z,3.60
2018-11-26T19:48:45.711Z,3.70
2018-11-26T19:51:14.126Z,3.70
2018-11-26T19:53:42.660Z,3.80
2018-11-26T19:56:11.234Z,3.60
2018-11-26T19:58:39.750Z,3.60
2018-11-26T20:01:08.216Z,3.70
2018-11-26T20:03:42.415Z,3.50
2018-11-26T20:06:14.632Z,3.50
2018-11-26T20:08:44.332Z,3.70
2018-11-26T20:11:12.644Z,3.70
2018-11-26T20:13:41.562Z,3.70
2018-11-26T20:16:13.475Z,3.70
2018-11-26T20:18:42.725Z,3.70
2018-11-26T20:21:11.041Z,3.80
2018-11-26T20:23:39.743Z,3.80
2018-11-26T20:26:08.311Z,3.70
2018-11-26T20:28:36.595Z,3.80
2018-11-26T20:31:05.500Z,3.80
2018-11-26T20:33:34.409Z,3.90
2018-11-26T20:36:03.316Z,4.00
2018-11-26T20:38:31.865Z,4.00
2018-11-26T20:41:00.788Z,4.00
2018-11-26T20:43:29.161Z,4.00
2018-11-26T20:45:57.848Z,3.90
2018-11-26T20:48:30.481Z,3.90
2018-11-26T20:50:54.708Z,3.90
2018-11-26T20:53:25.021Z,3.90
2018-11-26T20:55:53.812Z,3.70
2018-11-26T20:58:22.168Z,3.70
2018-11-26T21:03:32.108Z,3.90
2018-11-26T21:06:00.491Z,3.70
2018-11-26T21:08:28.769Z,3.70
2018-11-26T21:10:57.103Z,3.70
2018-11-26T21:13:25.424Z,3.90
2018-11-26T21:15:54.563Z,3.90
2018-11-26T21:18:23.257Z,4.00
2018-11-26T21:20:51.784Z,4.10
2018-11-26T21:23:24.156Z,4.10
2018-11-26T21:25:52.895Z,4.10
2018-11-26T21:28:21.977Z,4.00
2018-11-26T21:30:52.291Z,3.90
2018-11-26T21:33:19.323Z,3.80
2018-11-26T21:35:48.693Z,3.90
2018-11-26T21:38:17.065Z,3.80
2018-11-26T21:40:46.649Z,3.70
2018-11-26T21:43:15.351Z,3.70
2018-11-26T21:45:47.341Z,3.80
2018-11-26T21:48:15.840Z,3.70
2018-11-26T21:50:44.117Z,3.80
2018-11-26T21:55:48.079Z,3.80
2018-11-26T21:58:16.389Z,3.70
2018-11-26T22:00:45.041Z,3.80
2018-11-26T22:03:14.697Z,3.90
2018-11-26T22:05:43.711Z,3.90
2018-11-26T22:08:13.088Z,3.80
2018-11-26T22:13:06.705Z,3.80
2018-11-26T22:15:35.085Z,3.80
2018-11-26T22:18:04.648Z,3.80
2018-11-26T22:20:32.969Z,3.70
2018-11-26T22:23:01.313Z,3.80
2018-11-26T22:25:30.073Z,3.80
2018-11-26T22:27:58.462Z,3.80
2018-11-26T22:30:31.580Z,3.60
2018-11-26T22:33:01.024Z,3.60
2018-11-26T22:35:29.743Z,3.70
2018-11-26T22:37:58.975Z,3.80
2018-11-26T22:40:27.795Z,3.80
2018-11-26T22:42:56.217Z,3.80
2018-11-26T22:45:32.021Z,3.90
2018-11-26T22:48:06.729Z,3.80
2018-11-26T22:50:36.024Z,3.80
2018-11-26T22:53:04.605Z,3.60
2018-11-26T22:55:33.615Z,3.70
2018-11-26T22:58:01.944Z,3.50
2018-11-26T23:00:39.601Z,3.50
2018-11-26T23:03:07.919Z,3.50
2018-11-26T23:05:36.514Z,3.70
2018-11-26T23:08:05.088Z,3.50
2018-11-26T23:10:33.366Z,3.50
2018-11-26T23:13:01.666Z,3.60
2018-11-26T23:15:30.040Z,3.60
2018-11-26T23:17:58.732Z,3.60
2018-11-26T23:20:27.041Z,3.50
2018-11-26T23:22:55.820Z,3.50
2018-11-26T23:25:24.385Z,3.50
2018-11-26T23:27:53.021Z,3.50
2018-11-26T23:30:23.511Z,3.30
2018-11-26T23:32:58.972Z,3.40
2018-11-26T23:35:27.672Z,3.30
2018-11-26T23:37:56.269Z,3.30
2018-11-26T23:40:25.088Z,3.40
2018-11-26T23:42:53.836Z,3.30
2018-11-26T23:45:23.509Z,3.30
2018-11-26T23:47:52.401Z,3.40
2018-11-26T23:50:20.750Z,3.40
2018-11-26T23:52:49.036Z,3.40
2018-11-26T23:55:19.732Z,3.30
2018-11-26T23:57:48.030Z,3.30
